Time;durP1;ratioP1;P1;durP2;ratioP2;P2;SDS_P1;SDS_P2;PMS_P1;PMS_P2;Temp;Humidity;BMP_temperature;BMP_pressure;BME280_temperature;BME280_humidity;BME280_pressure;Samples;Min_cycle;Max_cycle;Signal;HPM_P1;HPM_P2
2022/10/07 00:02:48;;;;;;;;;5.75;3.75;;;;;17.45;44.70;101805.06;146636;615;45010;-66
2022/10/07 00:05:52;;;;;;;;;4.75;3.00;;;;;17.44;44.73;101805.88;146633;630;46012;-67
2022/10/07 00:08:53;;;;;;;;;5.00;4.75;;;;;17.46;45.19;101801.59;146638;706;45021;-67
2022/10/07 00:11:46;;;;;;;;;4.00;3.25;;;;;17.44;45.53;101792.78;146633;566;46916;-67
2022/10/07 00:14:45;;;;;;;;;5.50;5.50;;;;;17.45;45.41;101794.59;146634;636;45021;-66
2022/10/07 00:17:37;;;;;;;;;5.00;5.00;;;;;17.44;46.07;101776.16;146631;576;46012;-67
2022/10/07 00:20:43;;;;;;;;;6.00;5.00;;;;;17.39;45.84;101788.19;146635;641;45020;-66
2022/10/07 00:23:45;;;;;;;;;5.00;5.00;;;;;17.39;46.89;101796.94;146633;603;45913;-68
2022/10/07 00:26:43;;;;;;;;;3.50;2.25;;;;;17.43;46.38;101780.50;146637;591;45020;-72
2022/10/07 00:29:58;;;;;;;;;5.25;5.25;;;;;16.74;45.85;101651.91;146633;567;45012;-69
2022/10/07 00:32:53;;;;;;;;;4.75;3.25;;;;;17.52;47.53;101783.50;146632;582;45020;-69
2022/10/07 00:36:05;;;;;;;;;6.50;5.50;;;;;17.53;46.37;101768.66;146619;637;46016;-67
2022/10/07 00:39:07;;;;;;;;;6.75;6.00;;;;;17.61;46.46;101766.34;146623;570;46021;-67
2022/10/07 00:42:15;;;;;;;;;5.50;5.00;;;;;17.68;46.99;101771.88;146621;577;46014;-67
2022/10/07 00:45:34;;;;;;;;;5.75;5.75;;;;;17.72;46.27;101767.62;146621;670;47010;-67
2022/10/07 00:48:31;;;;;;;;;7.50;7.00;;;;;17.74;47.10;101768.59;146620;607;46012;-67
2022/10/07 00:51:32;;;;;;;;;4.50;4.50;;;;;17.79;47.36;101767.09;146622;667;46010;-67
2022/10/07 00:54:27;;;;;;;;;6.00;5.00;;;;;17.79;47.66;101761.84;146619;590;46915;-66
2022/10/07 00:57:27;;;;;;;;;4.25;3.25;;;;;17.77;46.63;101767.03;146622;637;46010;-68
2022/10/07 01:00:22;;;;;;;;;6.00;4.25;;;;;17.80;47.15;101766.25;146619;564;46016;-67
2022/10/07 01:03:36;;;;;;;;;6.75;4.25;;;;;17.80;47.14;101765.37;146622;590;46020;-67
2022/10/07 01:06:32;;;;;;;;;5.25;3.75;;;;;17.77;47.08;101766.13;146621;617;46015;-67
2022/10/07 01:09:28;;;;;;;;;6.00;6.00;;;;;17.75;47.82;101768.66;146622;574;46021;-67
2022/10/07 01:12:57;;;;;;;;;6.50;5.00;;;;;17.72;46.28;101768.53;146622;580;45016;-67
2022/10/07 01:16:16;;;;;;;;;6.00;5.00;;;;;17.71;47.30;101771.09;146622;596;46021;-67
2022/10/07 01:20:03;;;;;;;;;4.50;4.50;;;;;17.71;47.55;101768.47;146616;573;46915;-67
2022/10/07 01:23:40;;;;;;;;;5.00;5.00;;;;;17.65;46.78;101756.03;146623;618;46020;-67
2022/10/07 01:27:13;;;;;;;;;6.25;5.75;;;;;17.69;46.92;101763.16;146620;576;46015;-68
2022/10/07 01:30:16;;;;;;;;;6.00;5.00;;;;;17.66;47.99;101767.41;146622;596;46020;-68
2022/10/07 01:33:20;;;;;;;;;5.50;5.00;;;;;17.61;48.16;101761.09;146621;586;45016;-68
2022/10/07 01:36:31;;;;;;;;;5.50;5.50;;;;;17.55;46.92;101753.88;146622;644;46010;-69
2022/10/07 01:39:41;;;;;;;;;8.75;6.00;;;;;17.58;47.48;101760.97;146619;569;46012;-68
2022/10/07 01:42:39;;;;;;;;;7.25;7.00;;;;;17.58;49.05;101763.59;146623;565;46010;-68
2022/10/07 01:45:52;;;;;;;;;6.00;6.00;;;;;17.57;47.93;101757.47;146620;604;46013;-67
2022/10/07 01:48:51;;;;;;;;;6.75;6.75;;;;;17.55;48.58;101760.00;146614;563;47010;-69
2022/10/07 01:51:59;;;;;;;;;8.25;5.75;;;;;16.72;48.59;101613.37;146622;577;46013;-69
2022/10/07 01:55:39;;;;;;;;;8.50;5.00;;;;;17.51;47.70;101762.47;146622;581;46010;-66
2022/10/07 01:58:53;;;;;;;;;8.00;7.50;;;;;17.46;48.89;101770.13;146619;589;46017;-67
2022/10/07 02:02:38;;;;;;;;;5.25;5.00;;;;;17.42;47.60;101762.09;146622;636;45020;-67
2022/10/07 02:06:04;;;;;;;;;9.00;6.75;;;;;17.38;48.69;101774.16;146618;563;46016;-68
2022/10/07 02:09:01;;;;;;;;;8.75;6.00;;;;;17.30;50.67;101752.00;146622;715;46023;-68
2022/10/07 02:12:23;;;;;;;;;7.75;7.75;;;;;17.26;49.82;101755.34;146616;593;46016;-70
2022/10/07 02:15:35;;;;;;;;;7.75;7.75;;;;;17.25;49.73;101741.31;146622;565;45023;-65
2022/10/07 02:18:30;;;;;;;;;9.00;7.25;;;;;17.27;49.92;101758.03;146617;584;46016;-69
2022/10/07 02:21:51;;;;;;;;;12.00;10.00;;;;;17.29;49.32;101761.63;146620;579;46020;-67
2022/10/07 02:24:48;;;;;;;;;9.00;8.75;;;;;17.30;50.09;101752.00;146616;636;46016;-68
2022/10/07 02:27:47;;;;;;;;;9.00;9.00;;;;;17.31;49.56;101761.66;146623;593;46010;-69
2022/10/07 02:30:43;;;;;;;;;9.25;8.75;;;;;17.32;49.67;101768.72;146617;632;46017;-68
2022/10/07 02:33:41;;;;;;;;;7.00;7.00;;;;;17.31;49.12;101753.78;146621;667;46020;-70
2022/10/07 02:36:47;;;;;;;;;8.75;7.50;;;;;17.30;48.83;101754.63;146615;572;46016;-71
2022/10/07 02:39:45;;;;;;;;;9.25;9.25;;;;;17.27;50.96;101762.37;146621;595;46020;-70
2022/10/07 02:43:07;;;;;;;;;8.50;7.75;;;;;17.26;49.85;101766.72;146617;588;46016;-70
2022/10/07 02:46:30;;;;;;;;;11.25;10.00;;;;;17.21;49.36;101770.00;146619;589;46021;-72
2022/10/07 02:49:35;;;;;;;;;9.50;8.25;;;;;17.11;50.29;101768.72;146616;599;46016;-66
2022/10/07 02:52:52;;;;;;;;;10.00;9.25;;;;;17.11;51.30;101770.47;146619;564;46020;-67
2022/10/07 02:56:02;;;;;;;;;10.50;10.00;;;;;17.13;49.29;101767.03;146617;584;46016;-67
2022/10/07 02:59:03;;;;;;;;;9.25;8.75;;;;;17.12;50.79;101772.22;146617;695;47020;-67
2022/10/07 03:02:00;;;;;;;;;11.00;9.75;;;;;17.09;50.80;101771.25;146620;613;46012;-68
2022/10/07 03:04:58;;;;;;;;;10.00;10.00;;;;;17.08;50.10;101773.84;146621;586;46021;-67
2022/10/07 03:08:26;;;;;;;;;11.75;9.25;;;;;17.10;48.63;101769.53;146619;667;46012;-68
2022/10/07 03:11:20;;;;;;;;;8.50;8.25;;;;;17.12;50.81;101778.38;146620;579;46020;-66
2022/10/07 03:14:24;;;;;;;;;14.00;10.00;;;;;17.12;50.29;101780.09;146617;564;46016;-67
2022/10/07 03:17:16;;;;;;;;;13.75;11.00;;;;;17.11;50.44;101773.97;146618;580;46020;-67
2022/10/07 03:20:19;;;;;;;;;11.00;8.75;;;;;17.14;50.47;101781.06;146618;617;46015;-65
2022/10/07 03:23:31;;;;;;;;;13.75;13.50;;;;;17.19;50.09;101785.63;146620;596;46010;-66
2022/10/07 03:26:24;;;;;;;;;12.25;10.00;;;;;17.23;50.61;101789.31;146617;596;46014;-68
2022/10/07 03:29:18;;;;;;;;;14.75;13.50;;;;;17.23;50.12;101784.94;146617;643;46021;-66
2022/10/07 03:32:26;;;;;;;;;10.00;10.00;;;;;17.23;50.15;101784.06;146618;578;46012;-67
2022/10/07 03:35:26;;;;;;;;;11.50;9.75;;;;;17.17;50.66;101778.56;146619;629;46010;-70
2022/10/07 03:38:30;;;;;;;;;12.75;10.50;;;;;17.14;50.37;101783.69;146620;564;46012;-68
2022/10/07 03:41:35;;;;;;;;;15.75;11.75;;;;;16.75;49.62;101733.97;146620;616;46010;-68
2022/10/07 03:44:38;;;;;;;;;;;;;;;;;;;;;
2022/10/07 03:47:33;;;;;;;;;17.25;15.00;;;;;16.97;49.87;101788.19;146621;604;46010;-69
2022/10/07 03:50:32;;;;;;;;;11.75;11.75;;;;;17.01;50.00;101798.00;146620;598;46015;-69
2022/10/07 03:53:39;;;;;;;;;13.25;12.00;;;;;16.97;50.58;101798.69;146620;618;46010;-70
2022/10/07 03:56:43;;;;;;;;;14.00;13.25;;;;;16.90;49.85;101801.88;146619;624;46012;-68
2022/10/07 03:59:39;;;;;;;;;12.75;12.50;;;;;16.79;50.68;101794.47;146620;622;46010;-70
2022/10/07 04:02:40;;;;;;;;;13.00;12.50;;;;;16.73;51.55;101795.87;146617;580;46918;-70
2022/10/07 04:05:38;;;;;;;;;13.50;13.00;;;;;16.73;51.01;101793.25;146621;630;46021;-71
2022/10/07 04:08:35;;;;;;;;;12.50;12.50;;;;;16.72;51.16;101783.59;146619;628;46014;-68
2022/10/07 04:11:39;;;;;;;;;14.25;12.75;;;;;16.72;52.51;101799.31;146623;576;46010;-68
2022/10/07 04:14:50;;;;;;;;;16.25;14.75;;;;;16.58;50.41;101790.88;146619;581;46016;-69
2022/10/07 04:18:01;;;;;;;;;16.00;14.00;;;;;16.44;50.35;101786.75;146621;598;45020;-69
2022/10/07 04:20:58;;;;;;;;;15.25;13.00;;;;;16.48;52.19;101802.69;146621;589;46012;-68
2022/10/07 04:23:54;;;;;;;;;17.00;14.00;;;;;16.48;52.88;101805.28;146620;606;46020;-69
2022/10/07 04:26:56;;;;;;;;;15.25;14.75;;;;;16.42;52.69;101786.69;146618;638;46918;-71
2022/10/07 04:29:57;;;;;;;;;16.50;15.00;;;;;16.44;52.38;101792.87;146619;636;46020;-71
2022/10/07 04:32:50;;;;;;;;;12.00;11.50;;;;;16.47;52.06;101795.63;146618;651;46012;-72
2022/10/07 04:35:43;;;;;;;;;16.00;13.25;;;;;16.51;51.24;101800.19;146621;618;46021;-71
2022/10/07 04:38:37;;;;;;;;;16.50;14.50;;;;;16.50;52.45;101793.16;146617;632;46014;-72
2022/10/07 04:41:29;;;;;;;;;18.00;14.50;;;;;16.44;52.79;101810.31;146618;615;46020;-71
2022/10/07 04:44:21;;;;;;;;;19.00;16.00;;;;;16.36;51.88;101810.88;146617;569;46014;-71
2022/10/07 04:47:29;;;;;;;;;18.25;18.00;;;;;16.30;52.10;101783.53;146619;605;46020;-67
2022/10/07 04:50:24;;;;;;;;;18.50;15.25;;;;;16.25;53.77;101801.62;146616;649;46017;-67
2022/10/07 04:53:23;;;;;;;;;16.25;14.75;;;;;16.18;52.66;101796.94;146619;613;46020;-67
2022/10/07 04:56:34;;;;;;;;;;;;;;;;;;;;;
2022/10/07 04:59:37;;;;;;;;;19.00;16.50;;;;;16.02;54.28;101799.69;146620;586;46020;-66
2022/10/07 05:02:49;;;;;;;;;17.75;16.25;;;;;14.78;53.00;101562.16;146615;590;46917;-66
2022/10/07 05:05:56;;;;;;;;;15.25;14.50;;;;;16.89;51.83;101801.00;146618;586;46021;-66
2022/10/07 05:08:55;;;;;;;;;17.50;15.00;;;;;17.77;51.43;101798.50;146617;564;46014;-67
2022/10/07 05:12:11;;;;;;;;;15.25;12.00;;;;;18.70;49.35;101794.94;146620;597;46021;-67
2022/10/07 05:15:04;;;;;;;;;17.75;16.00;;;;;19.72;47.73;101788.69;146615;569;46016;-67
2022/10/07 05:18:12;;;;;;;;;14.75;14.50;;;;;20.66;44.90;101797.59;146618;582;46010;-66
2022/10/07 05:21:15;;;;;;;;;13.00;10.25;;;;;21.29;44.10;101794.81;146616;565;46016;-65
2022/10/07 05:24:23;;;;;;;;;8.50;8.00;;;;;21.85;43.01;101791.75;146618;593;46020;-70
2022/10/07 05:27:20;;;;;;;;;12.75;9.75;;;;;21.78;43.00;101793.37;146620;601;46019;-68
2022/10/07 05:30:26;;;;;;;;;8.75;8.25;;;;;21.79;42.66;101783.69;146622;581;46020;-68
2022/10/07 05:33:30;;;;;;;;;8.75;7.75;;;;;22.27;43.39;101788.25;146620;619;46016;-67
2022/10/07 05:36:22;;;;;;;;;6.25;6.00;;;;;22.55;41.72;101787.97;146623;576;46010;-67
2022/10/07 05:39:16;;;;;;;;;11.25;8.75;;;;;22.35;41.24;101791.94;146620;608;46014;-67
2022/10/07 05:42:12;;;;;;;;;15.00;13.00;;;;;22.12;40.87;101795.00;146621;563;46020;-70
2022/10/07 05:45:22;;;;;;;;;19.00;18.00;;;;;21.58;41.23;101816.66;146618;592;46016;-67
2022/10/07 05:48:20;;;;;;;;;19.25;18.00;;;;;21.07;42.36;101810.97;146618;593;46023;-69
2022/10/07 05:51:18;;;;;;;;;16.50;15.75;;;;;20.61;43.56;101815.03;146619;593;46012;-70
2022/10/07 05:54:15;;;;;;;;;19.75;17.00;;;;;20.22;43.95;101816.53;146618;598;46013;-69
2022/10/07 05:57:11;;;;;;;;;19.00;18.50;;;;;19.87;44.10;101818.09;146616;582;46016;-70
2022/10/07 06:00:11;;;;;;;;;21.75;16.50;;;;;19.72;45.07;101818.56;146617;576;46020;-68
2022/10/07 06:03:14;;;;;;;;;19.25;15.00;;;;;19.76;45.50;101835.31;146618;577;46014;-67
2022/10/07 06:06:24;;;;;;;;;17.25;15.00;;;;;18.85;45.25;101676.38;146619;591;46020;-70
2022/10/07 06:15:48;;;;;;;;;16.00;15.00;;;;;20.32;45.34;101829.97;146616;571;46016;-69
2022/10/07 06:18:51;;;;;;;;;21.25;17.00;;;;;20.45;44.46;101827.72;146617;641;46021;-68
2022/10/07 06:21:47;;;;;;;;;16.75;14.50;;;;;20.53;44.67;101826.25;146616;634;46016;-68
2022/10/07 06:24:44;;;;;;;;;16.50;14.00;;;;;20.65;43.78;101833.59;146619;575;46012;-69
2022/10/07 06:27:49;;;;;;;;;16.75;15.75;;;;;20.86;44.43;101828.00;146617;583;46917;-68
2022/10/07 06:30:43;;;;;;;;;14.75;13.50;;;;;21.18;43.57;101825.31;146620;569;46010;-70
2022/10/07 06:33:44;;;;;;;;;9.50;9.50;;;;;21.52;43.53;101826.19;146616;653;46014;-71
2022/10/07 06:36:42;;;;;;;;;12.00;11.25;;;;;21.78;42.31;101827.69;146621;642;46020;-69
2022/10/07 06:39:43;;;;;;;;;14.00;13.25;;;;;21.90;42.21;101840.28;146617;583;46012;-69
2022/10/07 06:42:46;;;;;;;;;10.75;8.00;;;;;21.97;42.53;101841.31;146623;655;46020;-67
2022/10/07 06:45:41;;;;;;;;;9.25;8.75;;;;;22.00;42.26;101836.97;146620;582;46012;-68
2022/10/07 06:48:36;;;;;;;;;11.00;7.25;;;;;21.99;42.89;101834.28;146621;693;46020;-70
2022/10/07 06:51:33;;;;;;;;;11.75;9.00;;;;;22.09;42.77;101831.91;146617;692;46016;-68
2022/10/07 06:54:26;;;;;;;;;8.50;8.50;;;;;22.24;41.75;101834.03;146622;628;46021;-69
2022/10/07 06:57:28;;;;;;;;;3.33;2.67;;;;;22.32;41.16;101823.59;146621;604;46016;-69
2022/10/07 07:00:24;;;;;;;;;5.25;5.00;;;;;22.51;41.21;101822.22;146618;608;47020;-69
2022/10/07 07:03:19;;;;;;;;;4.00;4.00;;;;;22.72;40.80;101821.75;146620;580;46016;-68
2022/10/07 07:06:13;;;;;;;;;2.00;2.00;;;;;22.96;38.92;101816.03;146623;653;46010;-68
2022/10/07 07:09:07;;;;;;;;;3.00;3.00;;;;;23.09;40.09;101825.09;146618;602;46013;-69
2022/10/07 07:12:04;;;;;;;;;3.00;2.00;;;;;23.27;39.12;101823.66;146621;601;46010;-70
2022/10/07 07:15:09;;;;;;;;;4.00;4.00;;;;;23.52;39.81;101829.34;146621;596;46016;-69
2022/10/07 07:18:17;;;;;;;;;5.50;4.75;;;;;23.79;39.08;101820.91;146620;609;46012;-70
2022/10/07 07:21:27;;;;;;;;;3.00;3.00;;;;;24.08;38.52;101821.34;146620;570;46012;-69
2022/10/07 07:24:20;;;;;;;;;3.00;3.00;;;;;24.30;38.08;101816.28;146622;634;46010;-69
2022/10/07 07:27:17;;;;;;;;;2.00;2.00;;;;;24.46;38.16;101810.34;146619;595;46034;-69
2022/10/07 07:30:21;;;;;;;;;4.33;3.00;;;;;24.62;38.67;101808.75;146622;586;46021;-68
2022/10/07 07:33:17;;;;;;;;;2.00;2.00;;;;;24.82;37.85;101817.78;146620;595;46014;-69
2022/10/07 07:36:29;;;;;;;;;1.00;1.00;;;;;24.99;38.43;101801.16;146620;594;46020;-68
2022/10/07 07:39:33;;;;;;;;;2.67;2.67;;;;;25.15;37.88;101812.81;146618;642;46017;-70
2022/10/07 07:42:28;;;;;;;;;2.00;2.00;;;;;25.28;36.61;101810.28;146621;582;46020;-69
2022/10/07 07:45:35;;;;;;;;;2.00;0.00;;;;;25.33;36.33;101811.22;146620;590;46016;-68
2022/10/07 07:48:31;;;;;;;;;2.00;2.00;;;;;25.32;36.59;101806.75;146621;565;46020;-68
2022/10/07 07:51:41;;;;;;;;;4.00;2.00;;;;;25.35;36.80;101812.09;146621;703;46012;-69
2022/10/07 07:54:36;;;;;;;;;1.00;1.00;;;;;25.24;35.73;101808.47;146623;617;46010;-70
2022/10/07 07:57:34;;;;;;;;;2.33;2.33;;;;;25.10;36.04;101818.94;146620;658;46012;-67
2022/10/07 08:00:33;;;;;;;;;3.00;2.00;;;;;24.98;35.94;101805.56;146620;620;46021;-72
2022/10/07 08:03:41;;;;;;;;;2.33;2.00;;;;;25.01;36.84;101804.69;146618;566;46017;-68
2022/10/07 08:06:36;;;;;;;;;3.33;2.00;;;;;25.20;36.02;101817.28;146623;573;46012;-69
2022/10/07 08:09:35;;;;;;;;;2.33;2.33;;;;;25.41;36.61;101805.06;146620;597;46016;-71
2022/10/07 08:12:39;;;;;;;;;1.67;1.33;;;;;25.66;36.64;101800.78;146625;646;46010;-71
2022/10/07 08:15:37;;;;;;;;;2.00;2.00;;;;;25.86;35.51;101795.63;146619;579;46916;-71
2022/10/07 08:18:44;;;;;;;;;2.00;1.00;;;;;25.90;36.30;101797.44;146621;574;46916;-71
2022/10/07 08:21:47;;;;;;;;;3.67;2.00;;;;;25.19;36.52;101664.22;146619;584;46016;-70
2022/10/07 08:24:48;;;;;;;;;2.00;2.00;;;;;26.07;36.51;101798.38;146621;611;46027;-70
2022/10/07 08:27:46;;;;;;;;;3.00;3.00;;;;;26.19;34.63;101798.44;146621;655;46012;-71
2022/10/07 08:30:48;;;;;;;;;1.00;1.00;;;;;26.23;35.06;101794.00;146622;641;46020;-69
2022/10/07 08:33:55;;;;;;;;;2.00;2.00;;;;;26.16;33.10;101803.72;146618;647;46016;-69
2022/10/07 08:36:50;;;;;;;;;1.00;1.00;;;;;25.94;34.11;101807.19;146637;639;45020;-70
2022/10/07 08:40:12;;;;;;;;;2.00;2.00;;;;;24.98;35.68;101672.00;146633;619;46014;-69
2022/10/07 08:43:04;;;;;;;;;0.00;0.00;;;;;25.65;30.94;101801.69;146637;564;45020;-70
2022/10/07 08:46:04;;;;;;;;;2.00;2.00;;;;;25.58;34.88;101803.41;146633;585;46916;-70
2022/10/07 08:49:22;;;;;;;;;1.00;1.00;;;;;25.65;33.39;101804.34;146636;637;46010;-71
2022/10/07 08:53:10;;;;;;;;;2.67;2.33;;;;;24.38;36.55;101571.63;146633;600;45016;-71
2022/10/07 08:56:34;;;;;;;;;2.00;2.00;;;;;25.11;36.42;101673.87;146635;690;46010;-71
2022/10/07 08:59:44;;;;;;;;;2.00;2.00;;;;;26.01;36.97;101809.91;146636;648;45017;-72
2022/10/07 09:03:23;;;;;;;;;1.00;1.00;;;;;25.52;36.95;101659.97;146638;608;45020;-72
2022/10/07 09:07:00;;;;;;;;;3.00;3.00;;;;;26.54;35.80;101799.47;146636;588;45916;-70
2022/10/07 09:10:33;;;;;;;;;1.67;1.67;;;;;26.82;35.63;101788.00;146635;586;45021;-70
2022/10/07 09:13:47;;;;;;;;;2.67;2.00;;;;;26.81;34.80;101740.09;146635;646;45915;-70
2022/10/07 09:17:02;;;;;;;;;4.67;3.00;;;;;27.11;34.15;101776.47;146637;628;45021;-70
2022/10/07 09:20:18;;;;;;;;;1.67;1.67;;;;;27.16;34.89;101774.72;146635;570;45016;-70
2022/10/07 09:23:16;;;;;;;;;3.00;3.00;;;;;27.07;32.65;101775.59;146644;569;45010;-68
2022/10/07 09:26:16;;;;;;;;;4.00;2.00;;;;;26.91;34.15;101774.66;146634;625;46012;-71
2022/10/07 09:29:17;;;;;;;;;3.00;2.00;;;;;26.69;33.88;101779.09;146635;646;45020;-71
2022/10/07 09:32:10;;;;;;;;;3.00;3.00;;;;;26.54;34.45;101773.75;146633;581;45016;-70
2022/10/07 09:35:08;;;;;;;;;3.00;3.00;;;;;26.64;34.69;101774.66;146631;569;46010;-70
2022/10/07 09:38:11;;;;;;;;;2.00;2.00;;;;;26.86;33.17;101776.47;146622;683;46016;-70
2022/10/07 09:41:44;;;;;;;;;;;;;;;;;;;;;
2022/10/07 09:44:45;;;;;;;;;3.00;3.00;;;;;27.02;32.43;101766.72;146619;564;46916;-71
2022/10/07 09:48:06;;;;;;;;;3.33;3.33;;;;;27.02;32.21;101757.84;146623;651;46020;-70
2022/10/07 09:51:38;;;;;;;;;19.25;19.25;;;;;26.27;35.40;101623.00;146619;619;46012;-71
2022/10/07 09:54:55;;;;;;;;;2.00;2.00;;;;;27.20;33.71;101739.22;146622;597;46010;-70
2022/10/07 09:58:20;;;;;;;;;2.00;2.00;;;;;26.40;33.97;101608.81;146620;570;46016;-70
2022/10/07 10:01:24;;;;;;;;;3.67;3.00;;;;;26.94;32.77;101739.19;146620;573;46011;-68
2022/10/07 10:04:37;;;;;;;;;3.00;2.00;;;;;26.87;32.93;101746.28;146619;627;46016;-72
2022/10/07 10:07:36;;;;;;;;;2.33;2.33;;;;;26.64;33.38;101748.94;146624;615;46021;-71
2022/10/07 10:10:39;;;;;;;;;3.67;3.00;;;;;26.39;33.72;101733.81;146621;619;45041;-71
2022/10/07 10:13:49;;;;;;;;;3.00;3.00;;;;;25.98;34.13;101731.91;146624;633;46010;-70
2022/10/07 10:16:51;;;;;;;;;4.00;2.00;;;;;25.76;33.28;101729.16;146621;611;46012;-71
2022/10/07 10:19:53;;;;;;;;;2.67;2.67;;;;;25.64;34.22;101728.16;146623;565;46020;-71
2022/10/07 10:22:54;;;;;;;;;3.00;3.00;;;;;25.66;34.48;101721.09;146619;578;46017;-71
2022/10/07 10:26:42;;;;;;;;;3.00;3.00;;;;;25.25;35.04;101631.50;146622;608;46020;-71
2022/10/07 10:30:07;;;;;;;;;2.33;2.33;;;;;26.05;34.99;101720.44;146620;573;46918;-70
2022/10/07 10:33:34;;;;;;;;;2.00;2.00;;;;;25.58;34.66;101585.66;146622;583;46020;-71
2022/10/07 10:37:09;;;;;;;;;3.67;2.67;;;;;25.64;34.14;101543.16;146617;620;46015;-71
2022/10/07 10:40:43;;;;;;;;;3.00;2.67;;;;;26.92;34.46;101717.03;146620;614;46012;-73
2022/10/07 10:44:23;;;;;;;;;1.00;1.00;;;;;25.71;33.85;101451.09;146621;619;45023;-73
2022/10/07 10:48:15;;;;;;;;;2.33;1.67;;;;;26.78;31.66;101569.78;146624;571;46020;-70
2022/10/07 10:52:07;;;;;;;;;1.67;1.33;;;;;26.91;32.82;101561.75;146619;575;46017;-70
2022/10/07 10:55:38;;;;;;;;;2.67;2.67;;;;;27.79;31.08;101681.37;146625;575;46020;-73
2022/10/07 10:58:57;;;;;;;;;4.00;3.00;;;;;27.87;32.62;101691.06;146622;702;46012;-73
2022/10/07 11:01:57;;;;;;;;;2.00;2.00;;;;;27.98;31.82;101682.16;146623;638;46010;-73
2022/10/07 11:05:03;;;;;;;;;2.33;2.00;;;;;28.10;31.15;101671.41;146619;601;46918;-72
2022/10/07 11:08:25;;;;;;;;;3.00;1.67;;;;;28.09;31.70;101665.16;146623;583;46021;-72
2022/10/07 11:11:35;;;;;;;;;2.00;2.00;;;;;27.95;28.72;101668.84;146622;628;46012;-70
2022/10/07 11:14:36;;;;;;;;;2.00;2.00;;;;;27.49;29.03;101671.69;146625;564;48021;-74
2022/10/07 11:17:46;;;;;;;;;3.67;2.67;;;;;27.21;29.69;101663.78;146622;604;46016;-72
2022/10/07 11:20:47;;;;;;;;;2.33;2.33;;;;;27.22;30.91;101654.88;146624;651;46010;-73
2022/10/07 11:24:16;;;;;;;;;4.00;2.00;;;;;27.31;30.81;101652.19;146621;564;46012;-72
2022/10/07 11:27:32;;;;;;;;;2.33;2.00;;;;;27.49;32.84;101645.91;146625;648;46020;-71
2022/10/07 11:30:50;;;;;;;;;2.00;2.00;;;;;26.59;31.14;101474.06;146621;570;46916;-74
2022/10/07 11:34:23;;;;;;;;;3.00;3.00;;;;;26.91;31.79;101521.84;146624;577;46020;-72
2022/10/07 11:37:44;;;;;;;;;2.33;2.00;;;;;27.42;32.62;101636.19;146634;578;46016;-73
2022/10/07 11:41:02;;;;;;;;;2.00;2.00;;;;;27.25;29.79;101636.22;146636;595;45029;-71
2022/10/07 11:44:17;;;;;;;;;2.33;2.00;;;;;26.47;31.60;101485.59;146638;631;45013;-72
2022/10/07 11:47:01;;;;;;;;;3.00;3.00;;;;;27.30;29.72;101620.25;146713;571;46014;-72
2022/10/07 11:50:22;;;;;;;;;1.00;0.67;;;;;27.44;30.06;101610.41;146621;583;46016;-71
2022/10/07 11:53:24;;;;;;;;;3.00;2.00;;;;;27.62;29.04;101599.69;146631;657;46010;-70
2022/10/07 11:56:26;;;;;;;;;2.33;1.00;;;;;27.82;28.81;101596.03;146622;577;46016;-70
2022/10/07 11:59:52;;;;;;;;;2.00;2.00;;;;;27.92;28.48;101584.44;146628;612;46020;-69
2022/10/07 12:03:33;;;;;;;;;2.00;2.00;;;;;27.91;28.34;101563.13;146623;586;46017;-70
2022/10/07 12:06:27;;;;;;;;;1.67;1.67;;;;;27.91;27.22;101572.00;146630;583;46020;-68
2022/10/07 12:10:04;;;;;;;;;4.67;3.00;;;;;27.88;30.13;101561.34;146626;597;46017;-67
2022/10/07 12:13:37;;;;;;;;;1.33;1.33;;;;;27.78;27.99;101560.53;146631;604;46010;-68
2022/10/07 12:16:46;;;;;;;;;4.67;3.00;;;;;27.82;29.03;101550.72;146618;595;46017;-67
2022/10/07 12:19:39;;;;;;;;;3.00;3.00;;;;;27.85;27.47;101540.97;146630;596;45022;-68
2022/10/07 12:22:34;;;;;;;;;2.00;2.00;;;;;27.69;27.29;101541.91;146623;690;46012;-69
2022/10/07 12:25:36;;;;;;;;;2.67;2.67;;;;;27.57;27.96;101555.28;146630;584;46010;-68
2022/10/07 12:28:51;;;;;;;;;1.00;1.00;;;;;27.51;27.54;101553.59;146625;569;46019;-68
2022/10/07 12:31:57;;;;;;;;;3.00;3.00;;;;;27.55;28.88;101557.09;146631;567;46010;-68
2022/10/07 12:35:00;;;;;;;;;3.00;2.00;;;;;27.58;27.23;101555.31;146623;569;46014;-67
2022/10/07 12:38:24;;;;;;;;;3.33;3.00;;;;;27.44;28.48;101562.47;146635;583;46010;-67
2022/10/07 12:41:53;;;;;;;;;1.67;1.67;;;;;27.23;27.73;101573.22;146623;637;46017;-67
2022/10/07 12:44:51;;;;;;;;;1.33;1.33;;;;;26.80;26.61;101584.00;146628;588;46020;-66
2022/10/07 12:47:52;;;;;;;;;2.00;2.00;;;;;26.47;28.72;101583.09;146610;644;47013;-69
2022/10/07 12:50:49;;;;;;;;;1.33;1.00;;;;;26.10;28.19;101591.06;146617;563;46020;-67
2022/10/07 12:54:00;;;;;;;;;2.00;2.00;;;;;25.93;30.00;101599.03;146612;575;46028;-69
2022/10/07 12:57:06;;;;;;;;;2.00;2.00;;;;;24.95;29.65;101446.47;146617;575;46020;-66
2022/10/07 13:00:31;;;;;;;;;4.33;2.00;;;;;25.73;30.57;101598.97;146614;631;46918;-68
2022/10/07 13:04:17;;;;;;;;;3.00;1.33;;;;;24.71;31.36;101447.28;146617;566;46012;-68
2022/10/07 13:07:45;;;;;;;;;1.00;1.00;;;;;25.51;30.92;101599.75;146612;631;47013;-69
2022/10/07 13:11:21;;;;;;;;;1.67;1.67;;;;;25.27;30.64;101596.13;146617;569;47010;-68
2022/10/07 13:14:50;;;;;;;;;3.00;3.00;;;;;25.29;32.21;101586.41;146615;596;46016;-69
2022/10/07 13:18:28;;;;;;;;;4.67;3.00;;;;;24.61;32.40;101438.38;146616;571;46023;-69
2022/10/07 13:21:53;;;;;;;;;2.33;2.00;;;;;24.98;32.64;101486.28;146615;569;46016;-70
2022/10/07 13:25:16;;;;;;;;;1.33;1.33;;;;;25.64;31.83;101590.97;146618;576;46020;-69
2022/10/07 13:28:09;;;;;;;;;2.67;2.67;;;;;25.71;30.76;101582.13;146612;706;46916;-70
2022/10/07 13:31:31;;;;;;;;;3.00;3.00;;;;;24.79;31.85;101433.16;146618;630;47012;-69
2022/10/07 13:34:29;;;;;;;;;4.00;3.00;;;;;25.62;31.47;101578.56;146611;660;47012;-70
2022/10/07 13:37:39;;;;;;;;;3.00;3.00;;;;;25.65;32.90;101579.47;146618;637;46023;-71
2022/10/07 13:40:48;;;;;;;;;;;;;;;;;;;;;
2022/10/07 13:44:26;;;;;;;;;1.33;1.33;;;;;24.20;31.63;101320.66;146616;603;47012;-70
2022/10/07 13:47:31;;;;;;;;;1.33;1.33;;;;;25.73;30.64;101574.16;146612;584;46016;-68
2022/10/07 13:50:49;;;;;;;;;1.67;1.67;;;;;25.77;31.81;101568.87;146618;676;47010;-70
2022/10/07 13:53:54;;;;;;;;;5.00;5.00;;;;;25.84;32.20;101569.78;146611;599;46016;-69
2022/10/07 13:56:59;;;;;;;;;2.00;2.00;;;;;25.80;31.86;101568.00;146619;563;46010;-69
2022/10/07 14:00:09;;;;;;;;;3.00;3.00;;;;;25.65;31.58;101562.63;146612;590;46012;-70
2022/10/07 14:03:19;;;;;;;;;2.00;2.00;;;;;25.52;31.48;101570.56;146615;625;47010;-70
2022/10/07 14:06:39;;;;;;;;;2.00;2.00;;;;;24.75;31.47;101457.00;146610;565;46038;-69
2022/10/07 14:10:11;;;;;;;;;2.00;2.00;;;;;24.38;31.30;101409.06;146618;675;46010;-69
2022/10/07 14:13:32;;;;;;;;;1.00;1.00;;;;;24.37;29.19;101413.47;146612;581;46916;-68
2022/10/07 14:16:28;;;;;;;;;0.33;0.33;;;;;25.16;30.72;101562.47;146618;592;46020;-69
2022/10/07 14:19:26;;;;;;;;;2.67;1.67;;;;;25.10;30.08;101556.19;146613;586;47012;-66
2022/10/07 14:22:56;;;;;;;;;3.00;2.00;;;;;25.03;31.86;101549.09;146618;592;46011;-68
2022/10/07 14:26:03;;;;;;;;;2.00;2.00;;;;;25.00;31.92;101557.03;146612;582;46012;-68
2022/10/07 14:29:44;;;;;;;;;1.33;1.33;;;;;23.50;31.54;101288.41;146618;610;46020;-69
2022/10/07 14:36:21;;;;;;;;;2.33;1.33;;;;;24.98;31.71;101548.19;146614;591;47010;-69
2022/10/07 14:40:01;;;;;;;;;1.00;1.00;;;;;24.66;31.88;101500.28;146613;625;46016;-68
2022/10/07 14:43:04;;;;;;;;;1.00;1.00;;;;;24.91;31.00;101554.34;146617;685;47012;-69
2022/10/07 14:46:27;;;;;;;;;1.00;1.00;;;;;23.99;31.74;101400.00;146611;564;47014;-69
2022/10/07 14:49:22;;;;;;;;;2.00;0.67;;;;;24.81;31.55;101556.06;146615;569;47012;-69